PWSweather.com
Personal Weather Stations
Station Observations
KERKRADE
Terwinselen, KerkradeNL 6467

TerwinselenKerkradeNL 6467

Lat: 50.8677578, Lon: 6.024959399999943

Elevation: 508

Station Type: Vantage Pro2 +

http://www.weerstation-parkstad.nl

Latest ConditionsUpdated 4:04:49 AM GMT+01:01 Tuesday, Mar 26, 2019
Currently Today's Max Today's Min Today's Average
Temperature 41.5°F5.3°C 42.8°F6.0°C 41.5°F5.3°C 42.0°F5.6°C
Dew Point 36.1°F2.3°C 36.7°F2.6°C 34.0°F1.1°C 35.5°F1.9°C
Winds 0.9 mph NNW1.4 kmh NNW 2.9 mph -4.7 kmh - - 1.1 mph 1.8 kmh
Wind Gusts 0.9 mph1.4 kmh 9.0 mph14.5 kmh - -
Humidity 81% 81% 74% 78%
Pressure 30.45 in1031.2 mb 30.46 in1031.5 mb 30.44 in1030.8 mb -
Hour Temp Dew Point Humidity Winds Wind Gusts Pressure Precip Precip Rate Daily Precip Total
04:04 AM 41.5°F5.3°C 36.1°F2.3°C 81% 0.9 mph NNW1.4 kmh NNW 0.9 mph1.4 kmh 30.45 in1031.2 mb 0.00 in0.0 mm 0.00 in0.0 mm 0.00 in0.0 mm
04:03 AM 41.5°F5.3°C 36.1°F2.3°C 81% 0.9 mph NNW1.4 kmh NNW 2.0 mph3.2 kmh 30.45 in1031.2 mb 0.00 in0.0 mm 0.00 in0.0 mm 0.00 in0.0 mm
04:02 AM 41.5°F5.3°C 36.1°F2.3°C 81% 0.9 mph NNW1.4 kmh NNW -- 30.46 in1031.5 mb - 0.00 in0.0 mm 0.00 in0.0 mm
04:01 AM 41.5°F5.3°C 36.1°F2.3°C 81% 0.9 mph NNW1.4 kmh NNW 2.0 mph3.2 kmh 30.45 in1031.2 mb 0.00 in0.0 mm 0.00 in0.0 mm 0.00 in0.0 mm
04:00 AM 41.5°F5.3°C 36.1°F2.3°C 81% 0.9 mph NNW1.4 kmh NNW 2.9 mph4.7 kmh 30.45 in1031.2 mb 0.00 in0.0 mm 0.00 in0.0 mm 0.00 in0.0 mm
03:59 AM 41.5°F5.3°C 36.1°F2.3°C 81% Calm Calm 4.0 mph6.4 kmh 30.45 in1031.2 mb 0.00 in0.0 mm 0.00 in0.0 mm 0.00 in0.0 mm
03:58 AM 41.5°F5.3°C 36.1°F2.3°C 81% Calm Calm 0.9 mph1.4 kmh 30.45 in1031.2 mb 0.00 in0.0 mm 0.00 in0.0 mm 0.00 in0.0 mm
03:57 AM 41.5°F5.3°C 36.1°F2.3°C 81% Calm Calm -- 30.46 in1031.5 mb - 0.00 in0.0 mm 0.00 in0.0 mm
03:56 AM 41.5°F5.3°C 35.8°F2.1°C 80% Calm Calm 0.9 mph1.4 kmh 30.45 in1031.2 mb 0.00 in0.0 mm 0.00 in0.0 mm 0.00 in0.0 mm
03:54 AM 41.5°F5.3°C 35.8°F2.1°C 80% Calm Calm -- 30.45 in1031.2 mb 0.00 in0.0 mm 0.00 in0.0 mm 0.00 in0.0 mm
03:53 AM 41.5°F5.3°C 35.8°F2.1°C 80% Calm Calm -- 30.45 in1031.2 mb 0.00 in0.0 mm 0.00 in0.0 mm 0.00 in0.0 mm
03:52 AM 41.5°F5.3°C 35.8°F2.1°C 80% Calm Calm 0.9 mph1.4 kmh 30.46 in1031.5 mb - 0.00 in0.0 mm 0.00 in0.0 mm
03:51 AM 41.5°F5.3°C 35.8°F2.1°C 80% Calm Calm 0.9 mph1.4 kmh 30.45 in1031.2 mb 0.00 in0.0 mm 0.00 in0.0 mm 0.00 in0.0 mm
03:50 AM 41.5°F5.3°C 35.8°F2.1°C 80% Calm Calm 0.9 mph1.4 kmh 30.45 in1031.2 mb 0.00 in0.0 mm 0.00 in0.0 mm 0.00 in0.0 mm
03:49 AM 41.5°F5.3°C 35.8°F2.1°C 80% Calm Calm 0.9 mph1.4 kmh 30.45 in1031.2 mb 0.00 in0.0 mm 0.00 in0.0 mm 0.00 in0.0 mm
03:48 AM 41.5°F5.3°C 35.8°F2.1°C 80% Calm Calm -- 30.45 in1031.2 mb 0.00 in0.0 mm 0.00 in0.0 mm 0.00 in0.0 mm
03:47 AM 41.5°F5.3°C 35.8°F2.1°C 80% Calm Calm -- 30.46 in1031.5 mb - 0.00 in0.0 mm 0.00 in0.0 mm
03:46 AM 41.5°F5.3°C 35.8°F2.1°C 80% Calm Calm 2.9 mph4.7 kmh 30.45 in1031.2 mb 0.00 in0.0 mm 0.00 in0.0 mm 0.00 in0.0 mm
03:45 AM 41.5°F5.3°C 35.8°F2.1°C 80% Calm Calm -- 30.45 in1031.2 mb 0.00 in0.0 mm 0.00 in0.0 mm 0.00 in0.0 mm
03:44 AM 41.5°F5.3°C 35.8°F2.1°C 80% Calm Calm 2.0 mph3.2 kmh 30.45 in1031.2 mb 0.00 in0.0 mm 0.00 in0.0 mm 0.00 in0.0 mm
03:43 AM 41.5°F5.3°C 35.8°F2.1°C 80% Calm Calm -- 30.45 in1031.2 mb 0.00 in0.0 mm 0.00 in0.0 mm 0.00 in0.0 mm
03:42 AM 41.5°F5.3°C 35.8°F2.1°C 80% 0.9 mph NNW1.4 kmh NNW -- 30.46 in1031.5 mb - 0.00 in0.0 mm 0.00 in0.0 mm
03:41 AM 41.5°F5.3°C 35.8°F2.1°C 80% 0.9 mph NNW1.4 kmh NNW 2.0 mph3.2 kmh 30.45 in1031.2 mb 0.00 in0.0 mm 0.00 in0.0 mm 0.00 in0.0 mm
03:39 AM 41.5°F5.3°C 35.8°F2.1°C 80% Calm Calm 4.0 mph6.4 kmh 30.45 in1031.2 mb 0.00 in0.0 mm 0.00 in0.0 mm 0.00 in0.0 mm
03:38 AM 41.5°F5.3°C 35.8°F2.1°C 80% Calm Calm 0.9 mph1.4 kmh 30.45 in1031.2 mb 0.00 in0.0 mm 0.00 in0.0 mm 0.00 in0.0 mm
03:37 AM 41.5°F5.3°C 35.8°F2.1°C 80% Calm Calm -- 30.46 in1031.5 mb - 0.00 in0.0 mm 0.00 in0.0 mm
03:36 AM 41.5°F5.3°C 35.8°F2.1°C 80% Calm Calm 3.0 mph4.8 kmh 30.45 in1031.2 mb 0.00 in0.0 mm 0.00 in0.0 mm 0.00 in0.0 mm
03:35 AM 41.5°F5.3°C 35.6°F2.0°C 79% Calm Calm 0.9 mph1.4 kmh 30.45 in1031.2 mb 0.00 in0.0 mm 0.00 in0.0 mm 0.00 in0.0 mm
03:34 AM 41.5°F5.3°C 35.6°F2.0°C 79% Calm Calm 0.9 mph1.4 kmh 30.45 in1031.2 mb 0.00 in0.0 mm 0.00 in0.0 mm 0.00 in0.0 mm
03:33 AM 41.5°F5.3°C 35.6°F2.0°C 79% Calm Calm 0.9 mph1.4 kmh 30.45 in1031.2 mb 0.00 in0.0 mm 0.00 in0.0 mm 0.00 in0.0 mm
03:32 AM 41.7°F5.4°C 35.8°F2.1°C 79% Calm Calm 0.9 mph1.4 kmh 30.46 in1031.5 mb - 0.00 in0.0 mm 0.00 in0.0 mm
03:31 AM 41.7°F5.4°C 35.8°F2.1°C 79% Calm Calm -- 30.45 in1031.2 mb 0.00 in0.0 mm 0.00 in0.0 mm 0.00 in0.0 mm
03:30 AM 41.7°F5.4°C 35.8°F2.1°C 79% Calm Calm 0.9 mph1.4 kmh 30.44 in1030.8 mb 0.00 in0.0 mm 0.00 in0.0 mm 0.00 in0.0 mm
03:29 AM 41.7°F5.4°C 35.8°F2.1°C 79% Calm Calm -- 30.44 in1030.8 mb 0.00 in0.0 mm 0.00 in0.0 mm 0.00 in0.0 mm
03:28 AM 41.7°F5.4°C 35.8°F2.1°C 79% Calm Calm 0.9 mph1.4 kmh 30.44 in1030.8 mb 0.00 in0.0 mm 0.00 in0.0 mm 0.00 in0.0 mm
03:27 AM 41.7°F5.4°C 35.4°F1.9°C 78% Calm Calm -- 30.45 in1031.2 mb - 0.00 in0.0 mm 0.00 in0.0 mm
03:26 AM 41.7°F5.4°C 35.4°F1.9°C 78% Calm Calm 0.9 mph1.4 kmh 30.44 in1030.8 mb 0.00 in0.0 mm 0.00 in0.0 mm 0.00 in0.0 mm
03:25 AM 41.7°F5.4°C 35.4°F1.9°C 78% Calm Calm -- 30.44 in1030.8 mb 0.00 in0.0 mm 0.00 in0.0 mm 0.00 in0.0 mm
03:24 AM 41.7°F5.4°C 35.4°F1.9°C 78% Calm Calm -- 30.44 in1030.8 mb 0.00 in0.0 mm 0.00 in0.0 mm 0.00 in0.0 mm
03:23 AM 41.7°F5.4°C 35.4°F1.9°C 78% Calm Calm -- 30.44 in1030.8 mb 0.00 in0.0 mm 0.00 in0.0 mm 0.00 in0.0 mm
03:22 AM 41.7°F5.4°C 35.4°F1.9°C 78% Calm Calm -- 30.44 in1030.8 mb 0.00 in0.0 mm 0.00 in0.0 mm 0.00 in0.0 mm
03:21 AM 41.7°F5.4°C 35.4°F1.9°C 78% Calm Calm 2.9 mph4.7 kmh 30.44 in1030.8 mb 0.00 in0.0 mm 0.00 in0.0 mm 0.00 in0.0 mm
03:20 AM 41.7°F5.4°C 35.4°F1.9°C 78% Calm Calm 2.0 mph3.2 kmh 30.44 in1030.8 mb 0.00 in0.0 mm 0.00 in0.0 mm 0.00 in0.0 mm
03:18 AM 41.7°F5.4°C 35.4°F1.9°C 78% Calm Calm 0.9 mph1.4 kmh 30.44 in1030.8 mb 0.00 in0.0 mm 0.00 in0.0 mm 0.00 in0.0 mm
03:17 AM 41.7°F5.4°C 35.4°F1.9°C 78% Calm Calm -- 30.45 in1031.2 mb - 0.00 in0.0 mm 0.00 in0.0 mm
03:16 AM 41.7°F5.4°C 35.4°F1.9°C 78% Calm Calm 0.9 mph1.4 kmh 30.44 in1030.8 mb 0.00 in0.0 mm 0.00 in0.0 mm 0.00 in0.0 mm
03:15 AM 41.7°F5.4°C 35.4°F1.9°C 78% Calm Calm 0.9 mph1.4 kmh 30.44 in1030.8 mb 0.00 in0.0 mm 0.00 in0.0 mm 0.00 in0.0 mm
03:14 AM 41.7°F5.4°C 35.1°F1.7°C 77% Calm Calm 2.0 mph3.2 kmh 30.45 in1031.2 mb 0.00 in0.0 mm 0.00 in0.0 mm 0.00 in0.0 mm
03:13 AM 41.7°F5.4°C 35.1°F1.7°C 77% Calm Calm -- 30.45 in1031.2 mb 0.00 in0.0 mm 0.00 in0.0 mm 0.00 in0.0 mm
03:12 AM 41.7°F5.4°C 35.1°F1.7°C 77% 0.9 mph NNW1.4 kmh NNW -- 30.46 in1031.5 mb - 0.00 in0.0 mm 0.00 in0.0 mm
03:11 AM 41.7°F5.4°C 35.1°F1.7°C 77% 0.9 mph NNW1.4 kmh NNW -- 30.45 in1031.2 mb 0.00 in0.0 mm 0.00 in0.0 mm 0.00 in0.0 mm
03:10 AM 41.7°F5.4°C 35.1°F1.7°C 77% 0.9 mph NNW1.4 kmh NNW 0.9 mph1.4 kmh 30.45 in1031.2 mb 0.00 in0.0 mm 0.00 in0.0 mm 0.00 in0.0 mm
03:09 AM 41.7°F5.4°C 35.1°F1.7°C 77% 0.9 mph NNW1.4 kmh NNW 0.9 mph1.4 kmh 30.45 in1031.2 mb 0.00 in0.0 mm 0.00 in0.0 mm 0.00 in0.0 mm
03:08 AM 41.7°F5.4°C 35.1°F1.7°C 77% 0.9 mph NNW1.4 kmh NNW -- 30.45 in1031.2 mb 0.00 in0.0 mm 0.00 in0.0 mm 0.00 in0.0 mm
03:07 AM 41.7°F5.4°C 34.7°F1.5°C 76% 0.9 mph NNW1.4 kmh NNW -- 30.46 in1031.5 mb - 0.00 in0.0 mm 0.00 in0.0 mm
03:06 AM 41.7°F5.4°C 34.7°F1.5°C 76% 0.9 mph NNW1.4 kmh NNW 2.9 mph4.7 kmh 30.45 in1031.2 mb 0.00 in0.0 mm 0.00 in0.0 mm 0.00 in0.0 mm
03:05 AM 41.7°F5.4°C 34.7°F1.5°C 76% 0.9 mph NNW1.4 kmh NNW 0.9 mph1.4 kmh 30.45 in1031.2 mb 0.00 in0.0 mm 0.00 in0.0 mm 0.00 in0.0 mm
03:04 AM 41.7°F5.4°C 34.7°F1.5°C 76% 0.9 mph NNW1.4 kmh NNW 2.0 mph3.2 kmh 30.45 in1031.2 mb 0.00 in0.0 mm 0.00 in0.0 mm 0.00 in0.0 mm
03:03 AM 41.7°F5.4°C 34.7°F1.5°C 76% 0.9 mph NNW1.4 kmh NNW 4.0 mph6.4 kmh 30.45 in1031.2 mb 0.00 in0.0 mm 0.00 in0.0 mm 0.00 in0.0 mm
03:02 AM 41.7°F5.4°C 34.7°F1.5°C 76% 0.9 mph NNW1.4 kmh NNW 4.0 mph6.4 kmh 30.46 in1031.5 mb - 0.00 in0.0 mm 0.00 in0.0 mm
03:00 AM 41.7°F5.4°C 34.7°F1.5°C 76% Calm Calm -- 30.45 in1031.2 mb 0.00 in0.0 mm 0.00 in0.0 mm 0.00 in0.0 mm
02:59 AM 41.7°F5.4°C 34.7°F1.5°C 76% 0.9 mph NNW1.4 kmh NNW 0.9 mph1.4 kmh 30.45 in1031.2 mb 0.00 in0.0 mm 0.00 in0.0 mm 0.00 in0.0 mm
02:58 AM 41.7°F5.4°C 34.7°F1.5°C 76% 0.9 mph NNW1.4 kmh NNW 5.0 mph8.0 kmh 30.45 in1031.2 mb 0.00 in0.0 mm 0.00 in0.0 mm 0.00 in0.0 mm
02:57 AM 41.7°F5.4°C 34.7°F1.5°C 76% 0.9 mph NNW1.4 kmh NNW -- 30.46 in1031.5 mb - 0.00 in0.0 mm 0.00 in0.0 mm
02:56 AM 41.7°F5.4°C 34.7°F1.5°C 76% 0.9 mph NNW1.4 kmh NNW 0.9 mph1.4 kmh 30.45 in1031.2 mb 0.00 in0.0 mm 0.00 in0.0 mm 0.00 in0.0 mm
02:55 AM 41.7°F5.4°C 34.7°F1.5°C 76% 0.9 mph NNW1.4 kmh NNW -- 30.45 in1031.2 mb 0.00 in0.0 mm 0.00 in0.0 mm 0.00 in0.0 mm
02:54 AM 41.7°F5.4°C 34.7°F1.5°C 76% 0.9 mph NNW1.4 kmh NNW 0.9 mph1.4 kmh 30.45 in1031.2 mb 0.00 in0.0 mm 0.00 in0.0 mm 0.00 in0.0 mm
02:53 AM 41.7°F5.4°C 34.7°F1.5°C 76% 0.9 mph NNW1.4 kmh NNW 0.9 mph1.4 kmh 30.45 in1031.2 mb 0.00 in0.0 mm 0.00 in0.0 mm 0.00 in0.0 mm
02:52 AM 41.7°F5.4°C 34.7°F1.5°C 76% 0.9 mph NNW1.4 kmh NNW 2.0 mph3.2 kmh 30.46 in1031.5 mb - 0.00 in0.0 mm 0.00 in0.0 mm
02:51 AM 41.7°F5.4°C 34.7°F1.5°C 76% 0.9 mph NNW1.4 kmh NNW 0.9 mph1.4 kmh 30.45 in1031.2 mb 0.00 in0.0 mm 0.00 in0.0 mm 0.00 in0.0 mm
02:50 AM 41.7°F5.4°C 34.7°F1.5°C 76% 0.9 mph NNW1.4 kmh NNW 2.0 mph3.2 kmh 30.45 in1031.2 mb 0.00 in0.0 mm 0.00 in0.0 mm 0.00 in0.0 mm
02:49 AM 41.7°F5.4°C 34.7°F1.5°C 76% Calm Calm 4.9 mph7.9 kmh 30.45 in1031.2 mb 0.00 in0.0 mm 0.00 in0.0 mm 0.00 in0.0 mm
02:47 AM 41.7°F5.4°C 34.7°F1.5°C 76% Calm Calm 2.9 mph4.7 kmh 30.46 in1031.5 mb - 0.00 in0.0 mm 0.00 in0.0 mm
02:46 AM 41.7°F5.4°C 34.7°F1.5°C 76% 0.9 mph NNW1.4 kmh NNW -- 30.45 in1031.2 mb 0.00 in0.0 mm 0.00 in0.0 mm 0.00 in0.0 mm
02:45 AM 41.7°F5.4°C 34.7°F1.5°C 76% 0.9 mph NNW1.4 kmh NNW -- 30.45 in1031.2 mb 0.00 in0.0 mm 0.00 in0.0 mm 0.00 in0.0 mm
02:44 AM 41.7°F5.4°C 34.7°F1.5°C 76% 0.9 mph NNW1.4 kmh NNW -- 30.45 in1031.2 mb 0.00 in0.0 mm 0.00 in0.0 mm 0.00 in0.0 mm
02:43 AM 41.7°F5.4°C 34.7°F1.5°C 76% 0.9 mph NNW1.4 kmh NNW 0.9 mph1.4 kmh 30.45 in1031.2 mb 0.00 in0.0 mm 0.00 in0.0 mm 0.00 in0.0 mm
02:42 AM 41.7°F5.4°C 34.7°F1.5°C 76% 0.9 mph NNW1.4 kmh NNW 0.9 mph1.4 kmh 30.46 in1031.5 mb - 0.00 in0.0 mm 0.00 in0.0 mm
02:41 AM 41.7°F5.4°C 34.7°F1.5°C 76% 0.9 mph NNW1.4 kmh NNW -- 30.45 in1031.2 mb 0.00 in0.0 mm 0.00 in0.0 mm 0.00 in0.0 mm
02:40 AM 41.7°F5.4°C 34.0°F1.1°C 74% 0.9 mph NNW1.4 kmh NNW -- 30.45 in1031.2 mb 0.00 in0.0 mm 0.00 in0.0 mm 0.00 in0.0 mm
02:39 AM 41.7°F5.4°C 34.0°F1.1°C 74% 0.9 mph NNW1.4 kmh NNW 0.9 mph1.4 kmh 30.45 in1031.2 mb 0.00 in0.0 mm 0.00 in0.0 mm 0.00 in0.0 mm
02:38 AM 41.7°F5.4°C 34.0°F1.1°C 74% 0.9 mph NNW1.4 kmh NNW 4.0 mph6.4 kmh 30.45 in1031.2 mb 0.00 in0.0 mm 0.00 in0.0 mm 0.00 in0.0 mm
02:37 AM 41.7°F5.4°C 34.3°F1.3°C 75% 0.9 mph NNW1.4 kmh NNW -- 30.46 in1031.5 mb - 0.00 in0.0 mm 0.00 in0.0 mm
02:36 AM 41.7°F5.4°C 34.0°F1.1°C 74% 0.9 mph NNW1.4 kmh NNW 6.0 mph9.7 kmh 30.45 in1031.2 mb 0.00 in0.0 mm 0.00 in0.0 mm 0.00 in0.0 mm
02:35 AM 41.7°F5.4°C 34.7°F1.5°C 76% 0.9 mph NNW1.4 kmh NNW 6.0 mph9.7 kmh 30.45 in1031.2 mb 0.00 in0.0 mm 0.00 in0.0 mm 0.00 in0.0 mm
02:34 AM 41.7°F5.4°C 34.7°F1.5°C 76% 0.9 mph NNW1.4 kmh NNW 2.0 mph3.2 kmh 30.45 in1031.2 mb 0.00 in0.0 mm 0.00 in0.0 mm 0.00 in0.0 mm
02:33 AM 41.7°F5.4°C 34.7°F1.5°C 76% 0.9 mph NNW1.4 kmh NNW 0.9 mph1.4 kmh 30.45 in1031.2 mb 0.00 in0.0 mm 0.00 in0.0 mm 0.00 in0.0 mm
02:32 AM 41.7°F5.4°C 34.7°F1.5°C 76% 0.9 mph NNW1.4 kmh NNW -- 30.46 in1031.5 mb - 0.00 in0.0 mm 0.00 in0.0 mm
02:31 AM 41.7°F5.4°C 34.7°F1.5°C 76% 0.9 mph NNW1.4 kmh NNW -- 30.45 in1031.2 mb 0.00 in0.0 mm 0.00 in0.0 mm 0.00 in0.0 mm
02:30 AM 41.7°F5.4°C 34.0°F1.1°C 74% 0.9 mph NNW1.4 kmh NNW 0.9 mph1.4 kmh 30.45 in1031.2 mb 0.00 in0.0 mm 0.00 in0.0 mm 0.00 in0.0 mm
02:28 AM 41.7°F5.4°C 34.7°F1.5°C 76% 0.9 mph NNW1.4 kmh NNW 0.9 mph1.4 kmh 30.45 in1031.2 mb 0.00 in0.0 mm 0.00 in0.0 mm 0.00 in0.0 mm
02:27 AM 41.7°F5.4°C 34.3°F1.3°C 75% 0.9 mph NNW1.4 kmh NNW -- 30.46 in1031.5 mb - 0.00 in0.0 mm 0.00 in0.0 mm
02:26 AM 41.7°F5.4°C 34.0°F1.1°C 74% 0.9 mph NNW1.4 kmh NNW 4.0 mph6.4 kmh 30.45 in1031.2 mb 0.00 in0.0 mm 0.00 in0.0 mm 0.00 in0.0 mm
02:25 AM 41.7°F5.4°C 34.0°F1.1°C 74% 0.9 mph NNW1.4 kmh NNW -- 30.45 in1031.2 mb 0.00 in0.0 mm 0.00 in0.0 mm 0.00 in0.0 mm
02:24 AM 41.7°F5.4°C 34.0°F1.1°C 74% 0.9 mph NNW1.4 kmh NNW 4.0 mph6.4 kmh 30.45 in1031.2 mb 0.00 in0.0 mm 0.00 in0.0 mm 0.00 in0.0 mm
02:23 AM 41.5°F5.3°C 34.5°F1.4°C 76% 0.9 mph NNW1.4 kmh NNW 2.9 mph4.7 kmh 30.45 in1031.2 mb 0.00 in0.0 mm 0.00 in0.0 mm 0.00 in0.0 mm
02:22 AM 41.5°F5.3°C 34.5°F1.4°C 76% 0.9 mph NNW1.4 kmh NNW 0.9 mph1.4 kmh 30.46 in1031.5 mb - 0.00 in0.0 mm 0.00 in0.0 mm
02:21 AM 41.5°F5.3°C 34.5°F1.4°C 76% 0.9 mph NNW1.4 kmh NNW -- 30.45 in1031.2 mb 0.00 in0.0 mm 0.00 in0.0 mm 0.00 in0.0 mm
02:20 AM 41.5°F5.3°C 34.5°F1.4°C 76% 0.9 mph NNW1.4 kmh NNW 0.9 mph1.4 kmh 30.45 in1031.2 mb 0.00 in0.0 mm 0.00 in0.0 mm 0.00 in0.0 mm
02:19 AM 41.5°F5.3°C 34.5°F1.4°C 76% 0.9 mph NNW1.4 kmh NNW 0.9 mph1.4 kmh 30.45 in1031.2 mb 0.00 in0.0 mm 0.00 in0.0 mm 0.00 in0.0 mm
02:18 AM 41.5°F5.3°C 34.5°F1.4°C 76% 0.9 mph NNW1.4 kmh NNW 2.0 mph3.2 kmh 30.45 in1031.2 mb 0.00 in0.0 mm 0.00 in0.0 mm 0.00 in0.0 mm
02:17 AM 41.5°F5.3°C 34.5°F1.4°C 76% 0.9 mph NNW1.4 kmh NNW 4.0 mph6.4 kmh 30.46 in1031.5 mb - 0.00 in0.0 mm 0.00 in0.0 mm
02:15 AM 41.5°F5.3°C 34.5°F1.4°C 76% 0.9 mph NNW1.4 kmh NNW 2.9 mph4.7 kmh 30.45 in1031.2 mb 0.00 in0.0 mm 0.00 in0.0 mm 0.00 in0.0 mm
02:14 AM 41.5°F5.3°C 34.9°F1.6°C 77% 0.9 mph NNW1.4 kmh NNW 2.0 mph3.2 kmh 30.45 in1031.2 mb 0.00 in0.0 mm 0.00 in0.0 mm 0.00 in0.0 mm
02:13 AM 41.5°F5.3°C 34.9°F1.6°C 77% 0.9 mph NNW1.4 kmh NNW 0.9 mph1.4 kmh 30.45 in1031.2 mb 0.00 in0.0 mm 0.00 in0.0 mm 0.00 in0.0 mm
02:12 AM 41.5°F5.3°C 34.9°F1.6°C 77% 0.9 mph NNW1.4 kmh NNW 2.9 mph4.7 kmh 30.46 in1031.5 mb - 0.00 in0.0 mm 0.00 in0.0 mm
02:11 AM 41.5°F5.3°C 34.9°F1.6°C 77% 0.9 mph NNW1.4 kmh NNW 4.0 mph6.4 kmh 30.45 in1031.2 mb 0.00 in0.0 mm 0.00 in0.0 mm 0.00 in0.0 mm
02:10 AM 41.5°F5.3°C 34.9°F1.6°C 77% 0.9 mph NNW1.4 kmh NNW 4.0 mph6.4 kmh 30.45 in1031.2 mb 0.00 in0.0 mm 0.00 in0.0 mm 0.00 in0.0 mm
02:09 AM 41.5°F5.3°C 34.9°F1.6°C 77% 0.9 mph NNW1.4 kmh NNW 0.9 mph1.4 kmh 30.45 in1031.2 mb 0.00 in0.0 mm 0.00 in0.0 mm 0.00 in0.0 mm
02:08 AM 41.5°F5.3°C 34.9°F1.6°C 77% 0.9 mph NNW1.4 kmh NNW 2.0 mph3.2 kmh 30.45 in1031.2 mb 0.00 in0.0 mm 0.00 in0.0 mm 0.00 in0.0 mm
02:07 AM 41.5°F5.3°C 34.9°F1.6°C 77% 0.9 mph NNW1.4 kmh NNW -- 30.46 in1031.5 mb - 0.00 in0.0 mm 0.00 in0.0 mm
02:06 AM 41.5°F5.3°C 35.2°F1.8°C 78% 0.9 mph NNW1.4 kmh NNW 2.9 mph4.7 kmh 30.45 in1031.2 mb 0.00 in0.0 mm 0.00 in0.0 mm 0.00 in0.0 mm
02:05 AM 41.5°F5.3°C 35.2°F1.8°C 78% 0.9 mph NNW1.4 kmh NNW -- 30.45 in1031.2 mb 0.00 in0.0 mm 0.00 in0.0 mm 0.00 in0.0 mm
02:04 AM 41.5°F5.3°C 35.2°F1.8°C 78% 0.9 mph NNW1.4 kmh NNW -- 30.45 in1031.2 mb 0.00 in0.0 mm 0.00 in0.0 mm 0.00 in0.0 mm
02:03 AM 41.5°F5.3°C 35.2°F1.8°C 78% 0.9 mph NNW1.4 kmh NNW 2.0 mph3.2 kmh 30.45 in1031.2 mb 0.00 in0.0 mm 0.00 in0.0 mm 0.00 in0.0 mm
02:02 AM 41.5°F5.3°C 35.2°F1.8°C 78% 0.9 mph NNW1.4 kmh NNW -- 30.46 in1031.5 mb - 0.00 in0.0 mm 0.00 in0.0 mm
02:01 AM 41.5°F5.3°C 35.2°F1.8°C 78% 0.9 mph NNW1.4 kmh NNW 6.0 mph9.7 kmh 30.45 in1031.2 mb 0.00 in0.0 mm 0.00 in0.0 mm 0.00 in0.0 mm
02:00 AM 41.7°F5.4°C 35.4°F1.9°C 78% 0.9 mph NNW1.4 kmh NNW -- 30.45 in1031.2 mb 0.00 in0.0 mm 0.00 in0.0 mm 0.00 in0.0 mm
01:59 AM 41.7°F5.4°C 35.4°F1.9°C 78% 2.0 mph NNW3.2 kmh NNW -- 30.45 in1031.2 mb 0.00 in0.0 mm 0.00 in0.0 mm 0.00 in0.0 mm
01:58 AM 41.7°F5.4°C 35.4°F1.9°C 78% 2.0 mph NNW3.2 kmh NNW 4.0 mph6.4 kmh 30.45 in1031.2 mb 0.00 in0.0 mm 0.00 in0.0 mm 0.00 in0.0 mm
01:57 AM 41.7°F5.4°C 35.4°F1.9°C 78% 2.0 mph NNW3.2 kmh NNW 2.9 mph4.7 kmh 30.45 in1031.2 mb 0.00 in0.0 mm 0.00 in0.0 mm 0.00 in0.0 mm
01:55 AM 41.7°F5.4°C 35.4°F1.9°C 78% 2.0 mph NNW3.2 kmh NNW -- 30.45 in1031.2 mb 0.00 in0.0 mm 0.00 in0.0 mm 0.00 in0.0 mm
01:54 AM 41.7°F5.4°C 35.1°F1.7°C 77% 2.0 mph NNW3.2 kmh NNW 4.0 mph6.4 kmh 30.45 in1031.2 mb 0.00 in0.0 mm 0.00 in0.0 mm 0.00 in0.0 mm
01:53 AM 41.7°F5.4°C 35.1°F1.7°C 77% 2.0 mph NNW3.2 kmh NNW 4.0 mph6.4 kmh 30.45 in1031.2 mb 0.00 in0.0 mm 0.00 in0.0 mm 0.00 in0.0 mm
01:52 AM 41.7°F5.4°C 35.1°F1.7°C 77% 2.0 mph NNW3.2 kmh NNW 0.9 mph1.4 kmh 30.46 in1031.5 mb - 0.00 in0.0 mm 0.00 in0.0 mm
01:51 AM 41.7°F5.4°C 35.1°F1.7°C 77% 2.0 mph NNW3.2 kmh NNW 2.0 mph3.2 kmh 30.45 in1031.2 mb 0.00 in0.0 mm 0.00 in0.0 mm 0.00 in0.0 mm
01:50 AM 41.9°F5.5°C 35.2°F1.8°C 77% 2.0 mph NNW3.2 kmh NNW 6.0 mph9.7 kmh 30.45 in1031.2 mb 0.00 in0.0 mm 0.00 in0.0 mm 0.00 in0.0 mm
01:49 AM 41.9°F5.5°C 35.6°F2.0°C 78% 0.9 mph NNW1.4 kmh NNW 6.0 mph9.7 kmh 30.45 in1031.2 mb 0.00 in0.0 mm 0.00 in0.0 mm 0.00 in0.0 mm
01:48 AM 41.9°F5.5°C 35.6°F2.0°C 78% 0.9 mph NNW1.4 kmh NNW 4.0 mph6.4 kmh 30.45 in1031.2 mb 0.00 in0.0 mm 0.00 in0.0 mm 0.00 in0.0 mm
01:47 AM 41.9°F5.5°C 35.6°F2.0°C 78% 0.9 mph NNW1.4 kmh NNW -- 30.46 in1031.5 mb - 0.00 in0.0 mm 0.00 in0.0 mm
01:46 AM 41.9°F5.5°C 35.6°F2.0°C 78% 0.9 mph NNW1.4 kmh NNW 4.0 mph6.4 kmh 30.45 in1031.2 mb 0.00 in0.0 mm 0.00 in0.0 mm 0.00 in0.0 mm
01:45 AM 41.9°F5.5°C 35.6°F2.0°C 78% 0.9 mph NNW1.4 kmh NNW 2.0 mph3.2 kmh 30.45 in1031.2 mb 0.00 in0.0 mm 0.00 in0.0 mm 0.00 in0.0 mm
01:44 AM 42.1°F5.6°C 35.8°F2.1°C 78% 2.0 mph NNW3.2 kmh NNW -- 30.45 in1031.2 mb 0.00 in0.0 mm 0.00 in0.0 mm 0.00 in0.0 mm
01:43 AM 42.1°F5.6°C 35.8°F2.1°C 78% 2.0 mph NNW3.2 kmh NNW 0.9 mph1.4 kmh 30.45 in1031.2 mb 0.00 in0.0 mm 0.00 in0.0 mm 0.00 in0.0 mm
01:42 AM 42.1°F5.6°C 35.8°F2.1°C 78% 2.0 mph NNW3.2 kmh NNW -- 30.46 in1031.5 mb - 0.00 in0.0 mm 0.00 in0.0 mm
01:41 AM 42.1°F5.6°C 35.8°F2.1°C 78% 2.0 mph NNW3.2 kmh NNW 4.9 mph7.9 kmh 30.45 in1031.2 mb 0.00 in0.0 mm 0.00 in0.0 mm 0.00 in0.0 mm
01:40 AM 42.1°F5.6°C 35.8°F2.1°C 78% 2.0 mph NNW3.2 kmh NNW 2.0 mph3.2 kmh 30.45 in1031.2 mb 0.00 in0.0 mm 0.00 in0.0 mm 0.00 in0.0 mm
01:39 AM 42.1°F5.6°C 35.8°F2.1°C 78% 2.0 mph NNW3.2 kmh NNW 2.0 mph3.2 kmh 30.45 in1031.2 mb 0.00 in0.0 mm 0.00 in0.0 mm 0.00 in0.0 mm
01:38 AM 42.1°F5.6°C 35.8°F2.1°C 78% 2.9 mph NNW4.7 kmh NNW 6.0 mph9.7 kmh 30.45 in1031.2 mb 0.00 in0.0 mm 0.00 in0.0 mm 0.00 in0.0 mm
01:37 AM 42.1°F5.6°C 35.8°F2.1°C 78% 2.0 mph NNW3.2 kmh NNW 2.9 mph4.7 kmh 30.46 in1031.5 mb - 0.00 in0.0 mm 0.00 in0.0 mm
01:36 AM 42.1°F5.6°C 35.8°F2.1°C 78% 2.0 mph NNW3.2 kmh NNW 2.0 mph3.2 kmh 30.45 in1031.2 mb 0.00 in0.0 mm 0.00 in0.0 mm 0.00 in0.0 mm
01:35 AM 42.1°F5.6°C 35.8°F2.1°C 78% 2.0 mph NNW3.2 kmh NNW 4.9 mph7.9 kmh 30.45 in1031.2 mb 0.00 in0.0 mm 0.00 in0.0 mm 0.00 in0.0 mm
01:34 AM 42.1°F5.6°C 35.8°F2.1°C 78% 2.0 mph NNW3.2 kmh NNW 6.0 mph9.7 kmh 30.45 in1031.2 mb 0.00 in0.0 mm 0.00 in0.0 mm 0.00 in0.0 mm
01:33 AM 42.1°F5.6°C 35.8°F2.1°C 78% 2.0 mph NNW3.2 kmh NNW 4.9 mph7.9 kmh 30.45 in1031.2 mb 0.00 in0.0 mm 0.00 in0.0 mm 0.00 in0.0 mm
01:32 AM 42.3°F5.7°C 36.0°F2.2°C 78% 2.0 mph NNW3.2 kmh NNW -- 30.46 in1031.5 mb - 0.00 in0.0 mm 0.00 in0.0 mm
01:31 AM 42.3°F5.7°C 36.0°F2.2°C 78% 2.0 mph NNW3.2 kmh NNW 0.9 mph1.4 kmh 30.45 in1031.2 mb 0.00 in0.0 mm 0.00 in0.0 mm 0.00 in0.0 mm
01:30 AM 42.3°F5.7°C 36.0°F2.2°C 78% 2.0 mph NNW3.2 kmh NNW 6.0 mph9.7 kmh 30.45 in1031.2 mb 0.00 in0.0 mm 0.00 in0.0 mm 0.00 in0.0 mm
01:29 AM 42.3°F5.7°C 36.0°F2.2°C 78% 2.0 mph N3.2 kmh N 4.0 mph6.4 kmh 30.45 in1031.2 mb 0.00 in0.0 mm 0.00 in0.0 mm 0.00 in0.0 mm
01:28 AM 42.3°F5.7°C 36.0°F2.2°C 78% 0.9 mph N1.4 kmh N 4.9 mph7.9 kmh 30.45 in1031.2 mb 0.00 in0.0 mm 0.00 in0.0 mm 0.00 in0.0 mm
01:27 AM 42.3°F5.7°C 36.0°F2.2°C 78% 2.0 mph N3.2 kmh N 0.9 mph1.4 kmh 30.46 in1031.5 mb - 0.00 in0.0 mm 0.00 in0.0 mm
01:26 AM 42.3°F5.7°C 36.0°F2.2°C 78% 2.0 mph N3.2 kmh N 4.0 mph6.4 kmh 30.45 in1031.2 mb 0.00 in0.0 mm 0.00 in0.0 mm 0.00 in0.0 mm
01:25 AM 42.3°F5.7°C 36.0°F2.2°C 78% 2.0 mph N3.2 kmh N 0.9 mph1.4 kmh 30.45 in1031.2 mb 0.00 in0.0 mm 0.00 in0.0 mm 0.00 in0.0 mm
01:24 AM 42.3°F5.7°C 36.0°F2.2°C 78% 0.9 mph N1.4 kmh N 2.9 mph4.7 kmh 30.45 in1031.2 mb 0.00 in0.0 mm 0.00 in0.0 mm 0.00 in0.0 mm
01:23 AM 42.3°F5.7°C 36.0°F2.2°C 78% 0.9 mph N1.4 kmh N 4.9 mph7.9 kmh 30.45 in1031.2 mb 0.00 in0.0 mm 0.00 in0.0 mm 0.00 in0.0 mm
01:22 AM 42.3°F5.7°C 36.0°F2.2°C 78% 0.9 mph N1.4 kmh N -- 30.46 in1031.5 mb - 0.00 in0.0 mm 0.00 in0.0 mm
01:21 AM 42.3°F5.7°C 36.0°F2.2°C 78% 0.9 mph N1.4 kmh N 0.9 mph1.4 kmh 30.45 in1031.2 mb 0.00 in0.0 mm 0.00 in0.0 mm 0.00 in0.0 mm
01:20 AM 42.3°F5.7°C 36.0°F2.2°C 78% 2.0 mph N3.2 kmh N 6.0 mph9.7 kmh 30.45 in1031.2 mb 0.00 in0.0 mm 0.00 in0.0 mm 0.00 in0.0 mm
01:19 AM 42.3°F5.7°C 36.0°F2.2°C 78% 2.0 mph N3.2 kmh N 2.9 mph4.7 kmh 30.45 in1031.2 mb 0.00 in0.0 mm 0.00 in0.0 mm 0.00 in0.0 mm
01:18 AM 42.3°F5.7°C 36.0°F2.2°C 78% 2.0 mph N3.2 kmh N 4.0 mph6.4 kmh 30.45 in1031.2 mb 0.00 in0.0 mm 0.00 in0.0 mm 0.00 in0.0 mm
01:17 AM 42.3°F5.7°C 36.0°F2.2°C 78% 0.9 mph N1.4 kmh N 2.0 mph3.2 kmh 30.46 in1031.5 mb - 0.00 in0.0 mm 0.00 in0.0 mm
01:16 AM 42.3°F5.7°C 36.0°F2.2°C 78% 0.9 mph N1.4 kmh N 4.0 mph6.4 kmh 30.45 in1031.2 mb 0.00 in0.0 mm 0.00 in0.0 mm 0.00 in0.0 mm
01:15 AM 42.3°F5.7°C 36.0°F2.2°C 78% 0.9 mph N1.4 kmh N 2.0 mph3.2 kmh 30.45 in1031.2 mb 0.00 in0.0 mm 0.00 in0.0 mm 0.00 in0.0 mm
01:14 AM 42.3°F5.7°C 36.0°F2.2°C 78% 0.9 mph N1.4 kmh N -- 30.45 in1031.2 mb 0.00 in0.0 mm 0.00 in0.0 mm 0.00 in0.0 mm
01:13 AM 42.3°F5.7°C 36.0°F2.2°C 78% 0.9 mph N1.4 kmh N 2.9 mph4.7 kmh 30.45 in1031.2 mb 0.00 in0.0 mm 0.00 in0.0 mm 0.00 in0.0 mm
01:12 AM 42.3°F5.7°C 36.0°F2.2°C 78% 0.9 mph N1.4 kmh N 0.9 mph1.4 kmh 30.46 in1031.5 mb - 0.00 in0.0 mm 0.00 in0.0 mm
01:11 AM 42.3°F5.7°C 36.0°F2.2°C 78% 0.9 mph N1.4 kmh N 6.0 mph9.7 kmh 30.45 in1031.2 mb 0.00 in0.0 mm 0.00 in0.0 mm 0.00 in0.0 mm
01:10 AM 42.3°F5.7°C 36.0°F2.2°C 78% 0.9 mph N1.4 kmh N 4.0 mph6.4 kmh 30.45 in1031.2 mb 0.00 in0.0 mm 0.00 in0.0 mm 0.00 in0.0 mm
01:09 AM 42.3°F5.7°C 35.6°F2.0°C 77% 0.9 mph N1.4 kmh N -- 30.45 in1031.2 mb 0.00 in0.0 mm 0.00 in0.0 mm 0.00 in0.0 mm
01:08 AM 42.3°F5.7°C 36.0°F2.2°C 78% 0.9 mph N1.4 kmh N -- 30.45 in1031.2 mb 0.00 in0.0 mm 0.00 in0.0 mm 0.00 in0.0 mm
01:07 AM 42.3°F5.7°C 36.0°F2.2°C 78% 0.9 mph N1.4 kmh N -- 30.46 in1031.5 mb - 0.00 in0.0 mm 0.00 in0.0 mm
01:06 AM 42.3°F5.7°C 36.0°F2.2°C 78% 0.9 mph N1.4 kmh N 2.9 mph4.7 kmh 30.45 in1031.2 mb 0.00 in0.0 mm 0.00 in0.0 mm 0.00 in0.0 mm
01:05 AM 42.3°F5.7°C 36.0°F2.2°C 78% 0.9 mph N1.4 kmh N -- 30.45 in1031.2 mb 0.00 in0.0 mm 0.00 in0.0 mm 0.00 in0.0 mm
01:04 AM 42.3°F5.7°C 36.0°F2.2°C 78% 0.9 mph N1.4 kmh N 0.9 mph1.4 kmh 30.45 in1031.2 mb 0.00 in0.0 mm 0.00 in0.0 mm 0.00 in0.0 mm
01:03 AM 42.3°F5.7°C 36.0°F2.2°C 78% 0.9 mph N1.4 kmh N 4.0 mph6.4 kmh 30.45 in1031.2 mb 0.00 in0.0 mm 0.00 in0.0 mm 0.00 in0.0 mm
01:02 AM 42.3°F5.7°C 36.0°F2.2°C 78% 0.9 mph N1.4 kmh N 2.0 mph3.2 kmh 30.46 in1031.5 mb - 0.00 in0.0 mm 0.00 in0.0 mm
01:01 AM 42.3°F5.7°C 36.0°F2.2°C 78% 2.0 mph N3.2 kmh N 0.9 mph1.4 kmh 30.45 in1031.2 mb 0.00 in0.0 mm 0.00 in0.0 mm 0.00 in0.0 mm
01:00 AM 42.3°F5.7°C 36.0°F2.2°C 78% 2.0 mph N3.2 kmh N 4.0 mph6.4 kmh 30.45 in1031.2 mb 0.00 in0.0 mm 0.00 in0.0 mm 0.00 in0.0 mm
12:59 AM 42.3°F5.7°C 36.0°F2.2°C 78% 0.9 mph N1.4 kmh N 4.9 mph7.9 kmh 30.45 in1031.2 mb 0.00 in0.0 mm 0.00 in0.0 mm 0.00 in0.0 mm
12:58 AM 42.3°F5.7°C 36.0°F2.2°C 78% 0.9 mph N1.4 kmh N 2.9 mph4.7 kmh 30.45 in1031.2 mb 0.00 in0.0 mm 0.00 in0.0 mm 0.00 in0.0 mm
12:57 AM 42.3°F5.7°C 36.0°F2.2°C 78% 2.0 mph N3.2 kmh N -- 30.46 in1031.5 mb - 0.00 in0.0 mm 0.00 in0.0 mm
12:56 AM 42.3°F5.7°C 36.0°F2.2°C 78% 2.0 mph N3.2 kmh N 4.0 mph6.4 kmh 30.45 in1031.2 mb 0.00 in0.0 mm 0.00 in0.0 mm 0.00 in0.0 mm
12:55 AM 42.3°F5.7°C 36.0°F2.2°C 78% 2.0 mph N3.2 kmh N 2.0 mph3.2 kmh 30.45 in1031.2 mb 0.00 in0.0 mm 0.00 in0.0 mm 0.00 in0.0 mm
12:54 AM 42.3°F5.7°C 36.0°F2.2°C 78% 2.0 mph N3.2 kmh N 0.9 mph1.4 kmh 30.45 in1031.2 mb 0.00 in0.0 mm 0.00 in0.0 mm 0.00 in0.0 mm
12:53 AM 42.3°F5.7°C 36.0°F2.2°C 78% 2.0 mph N3.2 kmh N 2.9 mph4.7 kmh 30.45 in1031.2 mb 0.00 in0.0 mm 0.00 in0.0 mm 0.00 in0.0 mm
12:52 AM 42.3°F5.7°C 36.0°F2.2°C 78% 2.0 mph N3.2 kmh N 0.9 mph1.4 kmh 30.46 in1031.5 mb - 0.00 in0.0 mm 0.00 in0.0 mm
12:50 AM 42.3°F5.7°C 36.0°F2.2°C 78% 0.9 mph 1.4 kmh 4.0 mph6.4 kmh 30.45 in1031.2 mb 0.00 in0.0 mm 0.00 in0.0 mm 0.00 in0.0 mm
12:49 AM 42.3°F5.7°C 36.0°F2.2°C 78% 0.9 mph 1.4 kmh 2.0 mph3.2 kmh 30.45 in1031.2 mb 0.00 in0.0 mm 0.00 in0.0 mm 0.00 in0.0 mm
12:48 AM 42.3°F5.7°C 36.0°F2.2°C 78% 2.0 mph 3.2 kmh -- 30.45 in1031.2 mb 0.00 in0.0 mm 0.00 in0.0 mm 0.00 in0.0 mm
12:47 AM 42.3°F5.7°C 36.0°F2.2°C 78% 0.9 mph 1.4 kmh 2.9 mph4.7 kmh 30.46 in1031.5 mb - 0.00 in0.0 mm 0.00 in0.0 mm
12:46 AM 42.3°F5.7°C 36.0°F2.2°C 78% 0.9 mph 1.4 kmh 6.0 mph9.7 kmh 30.45 in1031.2 mb 0.00 in0.0 mm 0.00 in0.0 mm 0.00 in0.0 mm
12:45 AM 42.3°F5.7°C 36.0°F2.2°C 78% 0.9 mph N1.4 kmh N 2.9 mph4.7 kmh 30.45 in1031.2 mb 0.00 in0.0 mm 0.00 in0.0 mm 0.00 in0.0 mm
12:44 AM 42.3°F5.7°C 36.0°F2.2°C 78% 0.9 mph N1.4 kmh N -- 30.45 in1031.2 mb 0.00 in0.0 mm 0.00 in0.0 mm 0.00 in0.0 mm
12:43 AM 42.3°F5.7°C 36.0°F2.2°C 78% 0.9 mph N1.4 kmh N 0.9 mph1.4 kmh 30.45 in1031.2 mb 0.00 in0.0 mm 0.00 in0.0 mm 0.00 in0.0 mm
12:42 AM 42.3°F5.7°C 36.0°F2.2°C 78% 0.9 mph N1.4 kmh N -- 30.46 in1031.5 mb - 0.00 in0.0 mm 0.00 in0.0 mm
12:41 AM 42.3°F5.7°C 36.0°F2.2°C 78% 2.0 mph N3.2 kmh N 2.0 mph3.2 kmh 30.45 in1031.2 mb 0.00 in0.0 mm 0.00 in0.0 mm 0.00 in0.0 mm
12:40 AM 42.3°F5.7°C 36.0°F2.2°C 78% 2.0 mph N3.2 kmh N 6.0 mph9.7 kmh 30.45 in1031.2 mb 0.00 in0.0 mm 0.00 in0.0 mm 0.00 in0.0 mm
12:39 AM 42.3°F5.7°C 36.0°F2.2°C 78% 2.0 mph N3.2 kmh N 0.9 mph1.4 kmh 30.45 in1031.2 mb 0.00 in0.0 mm 0.00 in0.0 mm 0.00 in0.0 mm
12:38 AM 42.3°F5.7°C 36.0°F2.2°C 78% 2.0 mph N3.2 kmh N 2.9 mph4.7 kmh 30.45 in1031.2 mb 0.00 in0.0 mm 0.00 in0.0 mm 0.00 in0.0 mm
12:37 AM 42.3°F5.7°C 36.0°F2.2°C 78% 2.0 mph N3.2 kmh N -- 30.46 in1031.5 mb - 0.00 in0.0 mm 0.00 in0.0 mm
12:36 AM 42.3°F5.7°C 36.0°F2.2°C 78% 2.0 mph N3.2 kmh N 2.9 mph4.7 kmh 30.45 in1031.2 mb 0.00 in0.0 mm 0.00 in0.0 mm 0.00 in0.0 mm
12:35 AM 42.3°F5.7°C 36.0°F2.2°C 78% 2.0 mph N3.2 kmh N -- 30.45 in1031.2 mb 0.00 in0.0 mm 0.00 in0.0 mm 0.00 in0.0 mm
12:34 AM 42.3°F5.7°C 36.0°F2.2°C 78% 2.0 mph N3.2 kmh N 0.9 mph1.4 kmh 30.45 in1031.2 mb 0.00 in0.0 mm 0.00 in0.0 mm 0.00 in0.0 mm
12:33 AM 42.3°F5.7°C 36.0°F2.2°C 78% 2.0 mph N3.2 kmh N 2.0 mph3.2 kmh 30.45 in1031.2 mb 0.00 in0.0 mm 0.00 in0.0 mm 0.00 in0.0 mm
12:32 AM 42.4°F5.8°C 36.1°F2.3°C 78% 2.0 mph N3.2 kmh N -- 30.46 in1031.5 mb - 0.00 in0.0 mm 0.00 in0.0 mm
12:31 AM 42.4°F5.8°C 36.1°F2.3°C 78% 2.0 mph N3.2 kmh N 6.0 mph9.7 kmh 30.45 in1031.2 mb 0.00 in0.0 mm 0.00 in0.0 mm 0.00 in0.0 mm
12:30 AM 42.4°F5.8°C 36.1°F2.3°C 78% 2.0 mph N3.2 kmh N 6.0 mph9.7 kmh 30.45 in1031.2 mb 0.00 in0.0 mm 0.00 in0.0 mm 0.00 in0.0 mm
12:29 AM 42.4°F5.8°C 36.1°F2.3°C 78% 2.0 mph N3.2 kmh N 4.9 mph7.9 kmh 30.45 in1031.2 mb 0.00 in0.0 mm 0.00 in0.0 mm 0.00 in0.0 mm
12:28 AM 42.4°F5.8°C 36.1°F2.3°C 78% 0.9 mph 1.4 kmh 4.9 mph7.9 kmh 30.45 in1031.2 mb 0.00 in0.0 mm 0.00 in0.0 mm 0.00 in0.0 mm
12:27 AM 42.4°F5.8°C 36.1°F2.3°C 78% 0.9 mph 1.4 kmh 0.9 mph1.4 kmh 30.46 in1031.5 mb - 0.00 in0.0 mm 0.00 in0.0 mm
12:26 AM 42.4°F5.8°C 36.1°F2.3°C 78% 0.9 mph N1.4 kmh N 7.0 mph11.3 kmh 30.45 in1031.2 mb 0.00 in0.0 mm 0.00 in0.0 mm 0.00 in0.0 mm
12:25 AM 42.4°F5.8°C 36.1°F2.3°C 78% 0.9 mph N1.4 kmh N 2.0 mph3.2 kmh 30.45 in1031.2 mb 0.00 in0.0 mm 0.00 in0.0 mm 0.00 in0.0 mm
12:24 AM 42.4°F5.8°C 36.1°F2.3°C 78% 0.9 mph N1.4 kmh N 0.9 mph1.4 kmh 30.45 in1031.2 mb 0.00 in0.0 mm 0.00 in0.0 mm 0.00 in0.0 mm
12:23 AM 42.6°F5.9°C 36.3°F2.4°C 78% 0.9 mph N1.4 kmh N 0.9 mph1.4 kmh 30.45 in1031.2 mb 0.00 in0.0 mm 0.00 in0.0 mm 0.00 in0.0 mm
12:22 AM 42.6°F5.9°C 36.3°F2.4°C 78% 2.0 mph N3.2 kmh N 0.9 mph1.4 kmh 30.46 in1031.5 mb - 0.00 in0.0 mm 0.00 in0.0 mm
12:21 AM 42.6°F5.9°C 36.3°F2.4°C 78% 2.0 mph N3.2 kmh N 6.0 mph9.7 kmh 30.45 in1031.2 mb 0.00 in0.0 mm 0.00 in0.0 mm 0.00 in0.0 mm
12:20 AM 42.6°F5.9°C 36.3°F2.4°C 78% 2.0 mph N3.2 kmh N 4.0 mph6.4 kmh 30.45 in1031.2 mb 0.00 in0.0 mm 0.00 in0.0 mm 0.00 in0.0 mm
12:19 AM 42.6°F5.9°C 36.3°F2.4°C 78% 2.0 mph N3.2 kmh N 4.9 mph7.9 kmh 30.45 in1031.2 mb 0.00 in0.0 mm 0.00 in0.0 mm 0.00 in0.0 mm
12:18 AM 42.6°F5.9°C 36.3°F2.4°C 78% 2.0 mph N3.2 kmh N 2.0 mph3.2 kmh 30.45 in1031.2 mb 0.00 in0.0 mm 0.00 in0.0 mm 0.00 in0.0 mm
12:17 AM 42.6°F5.9°C 36.3°F2.4°C 78% 2.9 mph N4.7 kmh N -- 30.46 in1031.5 mb - 0.00 in0.0 mm 0.00 in0.0 mm
12:16 AM 42.6°F5.9°C 36.3°F2.4°C 78% 2.9 mph N4.7 kmh N -- 30.45 in1031.2 mb 0.00 in0.0 mm 0.00 in0.0 mm 0.00 in0.0 mm
12:15 AM 42.6°F5.9°C 36.3°F2.4°C 78% 2.9 mph N4.7 kmh N 4.9 mph7.9 kmh 30.44 in1030.8 mb 0.00 in0.0 mm 0.00 in0.0 mm 0.00 in0.0 mm
12:14 AM 42.6°F5.9°C 36.3°F2.4°C 78% 2.9 mph N4.7 kmh N 2.0 mph3.2 kmh 30.44 in1030.8 mb 0.00 in0.0 mm 0.00 in0.0 mm 0.00 in0.0 mm
12:13 AM 42.6°F5.9°C 36.3°F2.4°C 78% 2.9 mph N4.7 kmh N 4.0 mph6.4 kmh 30.44 in1030.8 mb 0.00 in0.0 mm 0.00 in0.0 mm 0.00 in0.0 mm
12:12 AM 42.6°F5.9°C 36.3°F2.4°C 78% 2.0 mph N3.2 kmh N 2.9 mph4.7 kmh 30.45 in1031.2 mb - 0.00 in0.0 mm 0.00 in0.0 mm
12:11 AM 42.6°F5.9°C 36.3°F2.4°C 78% 2.0 mph 3.2 kmh 8.1 mph13.0 kmh 30.44 in1030.8 mb 0.00 in0.0 mm 0.00 in0.0 mm 0.00 in0.0 mm
12:10 AM 42.6°F5.9°C 36.5°F2.5°C 79% 2.0 mph N3.2 kmh N 4.0 mph6.4 kmh 30.44 in1030.8 mb 0.00 in0.0 mm 0.00 in0.0 mm 0.00 in0.0 mm
12:09 AM 42.6°F5.9°C 36.3°F2.4°C 78% 2.0 mph N3.2 kmh N 6.0 mph9.7 kmh 30.44 in1030.8 mb 0.00 in0.0 mm 0.00 in0.0 mm 0.00 in0.0 mm
12:08 AM 42.6°F5.9°C 36.3°F2.4°C 78% 0.9 mph N1.4 kmh N 6.0 mph9.7 kmh 30.44 in1030.8 mb 0.00 in0.0 mm 0.00 in0.0 mm 0.00 in0.0 mm
12:07 AM 42.6°F5.9°C 36.5°F2.5°C 79% 0.9 mph NNW1.4 kmh NNW 0.9 mph1.4 kmh 30.45 in1031.2 mb - 0.00 in0.0 mm 0.00 in0.0 mm
12:06 AM 42.6°F5.9°C 36.5°F2.5°C 79% 0.9 mph NNW1.4 kmh NNW 4.0 mph6.4 kmh 30.44 in1030.8 mb 0.00 in0.0 mm 0.00 in0.0 mm 0.00 in0.0 mm
12:05 AM 42.6°F5.9°C 36.3°F2.4°C 78% 0.9 mph NNW1.4 kmh NNW 2.9 mph4.7 kmh 30.44 in1030.8 mb 0.00 in0.0 mm 0.00 in0.0 mm 0.00 in0.0 mm
12:04 AM 42.6°F5.9°C 36.5°F2.5°C 79% 0.9 mph NNW1.4 kmh NNW 0.9 mph1.4 kmh 30.44 in1030.8 mb 0.00 in0.0 mm 0.00 in0.0 mm 0.00 in0.0 mm
12:03 AM 42.6°F5.9°C 36.5°F2.5°C 79% 0.9 mph NNW1.4 kmh NNW 9.0 mph14.5 kmh 30.44 in1030.8 mb 0.00 in0.0 mm 0.00 in0.0 mm 0.00 in0.0 mm
12:02 AM 42.6°F5.9°C 36.5°F2.5°C 79% 0.9 mph NNW1.4 kmh NNW 2.0 mph3.2 kmh 30.45 in1031.2 mb - 0.00 in0.0 mm 0.00 in0.0 mm
12:01 AM 42.8°F6.0°C 36.7°F2.6°C 79% 2.0 mph NNW3.2 kmh NNW 2.9 mph4.7 kmh 30.44 in1030.8 mb 0.00 in0.0 mm 0.00 in0.0 mm 0.00 in0.0 mm
12:00 AM 42.8°F6.0°C 36.5°F2.5°C 78% 2.0 mph NNW3.2 kmh NNW 2.0 mph3.2 kmh 30.44 in1030.8 mb 0.00 in0.0 mm 0.00 in0.0 mm 0.00 in0.0 mm